createdAt,value
2022-08-30T00:01:33.869Z,14.40
2022-08-30T00:04:01.495Z,14.30
2022-08-30T00:06:29.839Z,14.30
2022-08-30T00:08:57.146Z,14.30
2022-08-30T00:11:26.785Z,14.20
2022-08-30T00:13:56.130Z,14.10
2022-08-30T00:16:23.888Z,14.10
2022-08-30T00:18:51.033Z,14.10
2022-08-30T00:21:19.011Z,14.10
2022-08-30T00:23:45.773Z,14.00
2022-08-30T00:26:12.475Z,14.00
2022-08-30T00:28:39.289Z,14.00
2022-08-30T00:31:07.453Z,14.00
2022-08-30T00:33:34.421Z,14.00
2022-08-30T00:36:01.511Z,13.90
2022-08-30T00:38:28.205Z,14.00
2022-08-30T00:40:55.219Z,14.00
2022-08-30T00:43:27.896Z,14.00
2022-08-30T00:45:55.538Z,14.00
2022-08-30T00:48:22.995Z,14.00
2022-08-30T00:50:55.897Z,13.90
2022-08-30T00:53:28.978Z,14.00
2022-08-30T00:55:57.554Z,13.90
2022-08-30T00:58:38.515Z,13.90
2022-08-30T01:01:07.167Z,13.90
2022-08-30T01:03:35.939Z,13.90
2022-08-30T01:06:04.510Z,13.90
2022-08-30T01:08:31.224Z,13.80
2022-08-30T01:10:58.646Z,13.80
2022-08-30T01:13:26.837Z,13.80
2022-08-30T01:15:55.025Z,13.80
2022-08-30T01:18:23.220Z,13.80
2022-08-30T01:20:58.261Z,13.80
2022-08-30T01:23:25.721Z,13.70
2022-08-30T01:25:55.314Z,13.70
2022-08-30T01:28:24.956Z,13.70
2022-08-30T01:30:53.084Z,13.70
2022-08-30T01:33:22.050Z,13.70
2022-08-30T01:35:58.148Z,13.70
2022-08-30T01:38:33.027Z,13.70
2022-08-30T01:41:08.596Z,13.70
2022-08-30T01:43:35.482Z,13.70
2022-08-30T01:46:02.815Z,13.70
2022-08-30T01:48:30.985Z,13.70
2022-08-30T01:50:58.737Z,13.60
2022-08-30T01:53:25.457Z,13.60
2022-08-30T01:55:52.162Z,13.60
2022-08-30T01:58:18.830Z,13.60
2022-08-30T02:00:45.779Z,13.60
2022-08-30T02:03:12.554Z,13.50
2022-08-30T02:05:39.381Z,13.50
2022-08-30T02:08:06.231Z,13.50
2022-08-30T02:10:33.131Z,13.50
2022-08-30T02:12:59.755Z,13.50
2022-08-30T02:15:26.581Z,13.40
2022-08-30T02:17:53.926Z,13.40
2022-08-30T02:20:20.602Z,13.40
2022-08-30T02:22:49.288Z,13.40
2022-08-30T02:25:20.901Z,13.40
2022-08-30T02:27:48.317Z,13.40
2022-08-30T02:30:15.013Z,13.30
2022-08-30T02:32:41.637Z,13.40
2022-08-30T02:35:09.513Z,13.40
2022-08-30T02:37:36.546Z,13.30
2022-08-30T02:40:05.938Z,13.30
2022-08-30T02:42:32.732Z,13.30
2022-08-30T02:45:00.409Z,13.20
2022-08-30T02:47:27.082Z,13.20
2022-08-30T02:49:53.713Z,13.20
2022-08-30T02:52:20.402Z,13.20
2022-08-30T02:54:55.261Z,13.20
2022-08-30T02:57:22.491Z,13.20
2022-08-30T02:59:49.530Z,13.20
2022-08-30T03:02:16.364Z,13.10
2022-08-30T03:04:46.387Z,13.10
2022-08-30T03:07:13.758Z,13.10
2022-08-30T03:09:40.884Z,13.10
2022-08-30T03:12:08.460Z,13.10
2022-08-30T03:14:36.836Z,13.10
2022-08-30T03:17:06.905Z,13.10
2022-08-30T03:19:39.557Z,13.10
2022-08-30T03:22:07.144Z,13.10
2022-08-30T03:24:34.650Z,13.20
2022-08-30T03:27:01.333Z,13.20
2022-08-30T03:29:29.732Z,13.20
2022-08-30T03:31:57.805Z,13.20
2022-08-30T03:34:25.941Z,13.30
2022-08-30T03:36:54.893Z,13.30
2022-08-30T03:39:23.441Z,13.30
2022-08-30T03:41:50.634Z,13.30
2022-08-30T03:44:18.714Z,13.30
2022-08-30T03:46:45.382Z,13.30
2022-08-30T03:49:12.424Z,13.30
2022-08-30T03:51:39.153Z,13.30
2022-08-30T03:54:05.806Z,13.30
2022-08-30T03:56:32.601Z,13.40
2022-08-30T03:58:59.269Z,13.30
2022-08-30T04:01:25.979Z,13.30
2022-08-30T04:03:52.756Z,13.30
2022-08-30T04:06:19.486Z,13.30
2022-08-30T04:08:46.110Z,13.30
2022-08-30T04:11:14.982Z,13.30
2022-08-30T04:13:44.997Z,13.40
2022-08-30T04:16:11.704Z,13.40
2022-08-30T04:18:38.751Z,13.30
2022-08-30T04:21:05.568Z,13.30
2022-08-30T04:23:32.240Z,13.30
2022-08-30T04:25:59.385Z,13.30
2022-08-30T04:28:26.057Z,13.30
2022-08-30T04:30:52.754Z,13.30
2022-08-30T04:33:19.496Z,13.30
2022-08-30T04:35:49.298Z,13.30
2022-08-30T04:38:17.434Z,13.30
2022-08-30T04:40:45.773Z,13.30
2022-08-30T04:43:13.122Z,13.30
2022-08-30T04:45:41.374Z,13.30
2022-08-30T04:48:08.828Z,13.30
2022-08-30T04:50:35.477Z,13.40
2022-08-30T04:53:02.110Z,13.40
2022-08-30T04:55:28.745Z,13.50
2022-08-30T04:57:56.459Z,13.50
2022-08-30T05:00:23.265Z,13.50
2022-08-30T05:02:50.054Z,13.60
2022-08-30T05:05:35.937Z,13.60
2022-08-30T05:08:02.840Z,13.60
2022-08-30T05:10:29.686Z,13.70
2022-08-30T05:12:56.693Z,13.70
2022-08-30T05:15:23.765Z,13.80
2022-08-30T05:17:50.408Z,13.80
2022-08-30T05:20:17.319Z,13.90
2022-08-30T05:22:52.277Z,14.00
2022-08-30T05:25:24.222Z,14.00
2022-08-30T05:27:51.530Z,14.00
2022-08-30T05:30:18.849Z,14.10
2022-08-30T05:32:45.676Z,14.20
2022-08-30T05:35:21.122Z,14.30
2022-08-30T05:37:50.871Z,14.30
2022-08-30T05:40:17.723Z,14.40
2022-08-30T05:42:46.094Z,14.40
2022-08-30T05:45:14.252Z,14.50
2022-08-30T05:47:41.232Z,14.60
2022-08-30T05:50:08.872Z,14.70
2022-08-30T05:52:37.863Z,14.70
2022-08-30T05:55:07.737Z,14.80
2022-08-30T05:57:38.874Z,14.90
2022-08-30T06:00:10.670Z,14.90
2022-08-30T06:02:37.357Z,15.00
2022-08-30T06:05:05.111Z,15.00
2022-08-30T06:07:32.695Z,15.10
2022-08-30T06:09:59.483Z,15.20
2022-08-30T06:12:26.477Z,15.30
2022-08-30T06:14:53.489Z,15.40
2022-08-30T06:17:20.572Z,15.50
2022-08-30T06:19:47.288Z,15.60
2022-08-30T06:22:14.068Z,15.70
2022-08-30T06:24:56.948Z,15.80
2022-08-30T06:27:24.637Z,15.90
2022-08-30T06:29:52.350Z,16.00
2022-08-30T06:32:19.150Z,16.10
2022-08-30T06:34:45.780Z,16.20
2022-08-30T06:37:12.439Z,16.30
2022-08-30T06:39:57.429Z,16.30
2022-08-30T06:42:24.542Z,16.40
2022-08-30T06:44:51.482Z,16.50
2022-08-30T06:47:18.281Z,16.50
2022-08-30T06:49:44.898Z,16.60
2022-08-30T06:52:11.833Z,16.70
2022-08-30T06:54:38.818Z,16.80
2022-08-30T06:57:05.477Z,17.00
2022-08-30T06:59:32.587Z,17.00
2022-08-30T07:01:59.552Z,17.10
2022-08-30T07:04:26.617Z,17.20
2022-08-30T07:06:53.462Z,17.20
2022-08-30T07:09:22.749Z,17.30
2022-08-30T07:11:50.533Z,17.40
2022-08-30T07:14:17.516Z,17.40
2022-08-30T07:16:45.186Z,17.50
2022-08-30T07:19:20.334Z,17.50
2022-08-30T07:21:49.294Z,17.50
2022-08-30T07:24:16.680Z,17.60
2022-08-30T07:26:49.151Z,17.70
2022-08-30T07:29:17.338Z,17.70
2022-08-30T07:31:44.637Z,17.70
2022-08-30T07:34:11.293Z,17.80
2022-08-30T07:36:38.823Z,17.80
2022-08-30T07:39:07.526Z,17.90
2022-08-30T07:41:38.439Z,17.90
2022-08-30T07:44:07.363Z,18.10
2022-08-30T07:46:34.963Z,18.10
2022-08-30T07:49:03.899Z,18.20
2022-08-30T07:51:31.960Z,18.40
2022-08-30T07:53:58.644Z,18.50
2022-08-30T07:56:25.850Z,18.70
2022-08-30T07:58:53.436Z,18.80
2022-08-30T08:01:21.785Z,18.80
2022-08-30T08:03:50.270Z,18.90
2022-08-30T08:06:19.378Z,19.20
2022-08-30T08:08:46.441Z,19.40
2022-08-30T08:11:20.666Z,19.50
2022-08-30T08:13:52.838Z,19.60
2022-08-30T08:16:23.139Z,19.80
2022-08-30T08:18:49.883Z,19.80
2022-08-30T08:21:16.740Z,19.50
2022-08-30T08:23:43.576Z,19.70
2022-08-30T08:26:10.383Z,19.80
2022-08-30T08:28:37.101Z,19.90
2022-08-30T08:31:03.989Z,19.90
2022-08-30T08:33:30.973Z,20.10
2022-08-30T08:35:57.621Z,20.20
2022-08-30T08:38:24.323Z,20.10
2022-08-30T08:41:15.045Z,20.20
2022-08-30T08:43:42.428Z,20.30
2022-08-30T08:46:35.203Z,20.30
2022-08-30T08:49:05.910Z,20.10
2022-08-30T08:51:57.083Z,20.30
2022-08-30T08:54:39.078Z,20.50
2022-08-30T08:57:06.001Z,20.30
2022-08-30T08:59:32.809Z,20.30
2022-08-30T09:02:02.910Z,20.40
2022-08-30T09:04:35.230Z,20.60
2022-08-30T09:07:24.556Z,20.70
2022-08-30T09:09:51.393Z,20.80
2022-08-30T09:12:18.120Z,20.80
2022-08-30T09:14:55.630Z,20.70
2022-08-30T09:17:23.301Z,20.80
2022-08-30T09:20:00.032Z,21.00
2022-08-30T09:22:40.194Z,21.10
2022-08-30T09:25:23.733Z,21.30
2022-08-30T09:27:52.728Z,21.30
2022-08-30T09:30:29.986Z,21.40
2022-08-30T09:33:05.809Z,21.30
2022-08-30T09:35:48.704Z,21.20
2022-08-30T09:38:29.279Z,21.10
2022-08-30T09:40:58.986Z,21.00
2022-08-30T09:43:28.646Z,20.90
2022-08-30T09:46:00.065Z,20.90
2022-08-30T09:48:26.758Z,20.90
2022-08-30T09:51:10.965Z,20.90
2022-08-30T09:54:07.380Z,21.10
2022-08-30T09:57:34.055Z,21.20
2022-08-30T10:00:16.958Z,21.10
2022-08-30T10:02:58.801Z,21.00
2022-08-30T10:05:30.764Z,21.10
2022-08-30T10:08:25.672Z,21.20
2022-08-30T10:11:01.060Z,21.30
2022-08-30T10:13:43.954Z,21.20
2022-08-30T10:16:40.919Z,21.20
2022-08-30T10:19:23.982Z,21.30
2022-08-30T10:22:07.092Z,21.40
2022-08-30T10:24:49.682Z,21.50
2022-08-30T10:27:21.933Z,21.40
2022-08-30T10:29:54.828Z,21.60
2022-08-30T10:32:30.983Z,21.50
2022-08-30T10:35:09.222Z,21.70
2022-08-30T10:37:41.616Z,22.00
2022-08-30T10:40:37.270Z,22.30
2022-08-30T10:43:13.598Z,22.60
2022-08-30T10:45:44.898Z,22.90
2022-08-30T10:48:27.107Z,22.60
2022-08-30T10:50:57.176Z,22.60
2022-08-30T10:53:39.031Z,22.60
2022-08-30T10:56:10.594Z,22.60
2022-08-30T10:58:41.482Z,22.70
2022-08-30T11:01:28.636Z,22.70
2022-08-30T11:04:28.349Z,23.00
2022-08-30T11:07:16.313Z,23.20
2022-08-30T11:10:08.852Z,23.30
2022-08-30T11:12:58.560Z,23.50
2022-08-30T11:15:31.480Z,23.70
2022-08-30T11:18:12.085Z,23.20
2022-08-30T11:20:45.542Z,23.00
2022-08-30T11:23:18.666Z,23.10
2022-08-30T11:26:07.534Z,23.10
2022-08-30T11:28:37.229Z,22.90
2022-08-30T11:31:32.944Z,23.10
2022-08-30T11:34:00.897Z,23.10
2022-08-30T11:36:37.051Z,23.30
2022-08-30T11:39:13.504Z,23.60
2022-08-30T11:42:08.085Z,23.80
2022-08-30T11:44:34.804Z,24.40
2022-08-30T11:47:22.658Z,24.90
2022-08-30T11:50:10.942Z,25.20
2022-08-30T11:53:11.258Z,25.10
2022-08-30T11:55:45.904Z,24.80
2022-08-30T11:58:38.756Z,25.00
2022-08-30T12:01:50.252Z,25.10
2022-08-30T12:04:18.104Z,25.10
2022-08-30T12:06:52.173Z,25.10
2022-08-30T12:09:25.030Z,24.90
2022-08-30T12:12:00.140Z,24.70
2022-08-30T12:14:41.183Z,24.90
2022-08-30T12:17:32.178Z,24.80
2022-08-30T12:19:59.828Z,24.60
2022-08-30T12:22:30.384Z,24.60
2022-08-30T12:24:57.841Z,24.80
2022-08-30T12:27:32.593Z,24.50
2022-08-30T12:30:04.563Z,24.50
2022-08-30T12:32:32.204Z,24.30
2022-08-30T12:35:02.996Z,24.20
2022-08-30T12:37:36.420Z,24.20
2022-08-30T12:40:17.051Z,23.80
2022-08-30T12:43:05.336Z,23.90
2022-08-30T12:45:37.624Z,24.00
2022-08-30T12:48:11.055Z,24.10
2022-08-30T12:50:48.845Z,24.10
2022-08-30T12:53:37.318Z,24.10
2022-08-30T12:56:10.910Z,24.30
2022-08-30T12:58:42.514Z,24.30
2022-08-30T13:01:29.236Z,24.30
2022-08-30T13:04:18.786Z,24.40
2022-08-30T13:06:58.317Z,24.60
2022-08-30T13:09:36.021Z,24.70
2022-08-30T13:12:20.968Z,24.70
2022-08-30T13:14:49.985Z,24.90
2022-08-30T13:17:19.056Z,25.10
2022-08-30T13:20:02.799Z,25.20
2022-08-30T13:22:35.799Z,25.70
2022-08-30T13:25:05.383Z,25.80
2022-08-30T13:27:36.766Z,25.10
2022-08-30T13:30:14.607Z,25.10
2022-08-30T13:32:42.201Z,25.30
2022-08-30T13:35:10.048Z,25.30
2022-08-30T13:37:50.484Z,25.30
2022-08-30T13:40:20.154Z,25.20
2022-08-30T13:42:47.050Z,25.00
2022-08-30T13:48:01.622Z,25.10
2022-08-30T13:50:28.346Z,25.20
2022-08-30T13:52:57.348Z,25.20
2022-08-30T13:55:23.990Z,25.20
2022-08-30T13:57:54.466Z,25.20
2022-08-30T14:00:22.456Z,25.10
2022-08-30T14:02:54.923Z,24.80
2022-08-30T14:05:47.621Z,24.40
2022-08-30T14:11:00.502Z,23.80
2022-08-30T14:13:29.280Z,23.40
2022-08-30T14:18:46.345Z,23.10
2022-08-30T14:21:12.984Z,23.20
2022-08-30T14:23:39.669Z,23.20
2022-08-30T14:26:19.719Z,23.30
2022-08-30T14:28:46.574Z,23.30
2022-08-30T14:31:18.605Z,23.30
2022-08-30T14:33:46.912Z,23.50
2022-08-30T14:36:15.509Z,23.50
2022-08-30T14:38:43.197Z,23.60
2022-08-30T14:41:10.871Z,23.30
2022-08-30T14:46:30.800Z,23.20
2022-08-30T14:48:57.470Z,23.20
2022-08-30T14:51:24.558Z,23.00
2022-08-30T14:53:53.061Z,23.00
2022-08-30T14:56:21.416Z,22.90
2022-08-30T14:58:50.681Z,22.70
2022-08-30T15:01:18.249Z,22.60
2022-08-30T15:03:45.494Z,22.60
2022-08-30T15:06:12.664Z,22.70
2022-08-30T15:08:39.617Z,22.80
2022-08-30T15:11:14.982Z,22.80
2022-08-30T15:13:44.274Z,22.80
2022-08-30T15:16:24.162Z,22.70
2022-08-30T15:18:50.946Z,22.70
2022-08-30T15:21:30.741Z,22.60
2022-08-30T15:24:16.199Z,22.60
2022-08-30T15:26:44.100Z,22.80
2022-08-30T15:29:12.480Z,22.60
2022-08-30T15:31:40.533Z,22.60
2022-08-30T15:34:12.421Z,22.50
2022-08-30T15:36:41.250Z,22.60
2022-08-30T15:39:09.033Z,22.80
2022-08-30T15:41:37.769Z,22.90
2022-08-30T15:44:11.535Z,22.90
2022-08-30T15:46:40.932Z,22.90
2022-08-30T15:49:12.407Z,23.00
2022-08-30T15:51:41.692Z,22.90
2022-08-30T15:54:15.208Z,23.00
2022-08-30T15:56:43.485Z,22.60
2022-08-30T15:59:15.155Z,22.70
2022-08-30T16:01:43.840Z,23.00
2022-08-30T16:04:11.596Z,23.40
2022-08-30T16:06:39.173Z,23.70
2022-08-30T16:09:08.029Z,23.80
2022-08-30T16:11:35.443Z,23.60
2022-08-30T16:14:02.700Z,23.80
2022-08-30T16:16:31.052Z,23.60
2022-08-30T16:18:58.285Z,23.60
2022-08-30T16:21:28.361Z,23.60
2022-08-30T16:23:58.461Z,23.50
2022-08-30T16:26:26.428Z,23.10
2022-08-30T16:28:53.955Z,23.30
2022-08-30T16:31:21.816Z,23.50
2022-08-30T16:33:52.703Z,23.80
2022-08-30T16:36:20.478Z,24.00
2022-08-30T16:38:48.850Z,23.70
2022-08-30T16:41:21.040Z,23.50
2022-08-30T16:43:49.672Z,23.20
2022-08-30T16:46:22.928Z,23.10
2022-08-30T16:48:50.272Z,22.60
2022-08-30T16:51:21.616Z,22.50
2022-08-30T16:53:49.126Z,22.20
2022-08-30T16:56:18.821Z,22.10
2022-08-30T16:58:46.300Z,22.10
2022-08-30T17:01:13.706Z,22.00
2022-08-30T17:03:41.429Z,21.90
2022-08-30T17:06:08.601Z,21.80
2022-08-30T17:08:35.463Z,21.90
2022-08-30T17:11:03.180Z,21.90
2022-08-30T17:13:30.333Z,21.90
2022-08-30T17:15:59.820Z,21.80
2022-08-30T17:18:26.616Z,21.70
2022-08-30T17:20:53.311Z,21.60
2022-08-30T17:23:22.325Z,21.50
2022-08-30T17:25:50.478Z,21.50
2022-08-30T17:28:17.257Z,21.40
2022-08-30T17:30:44.232Z,21.30
2022-08-30T17:33:12.048Z,21.10
2022-08-30T17:35:39.854Z,21.00
2022-08-30T17:38:06.564Z,21.00
2022-08-30T17:40:33.268Z,20.90
2022-08-30T17:43:00.083Z,20.90
2022-08-30T17:45:26.736Z,20.80
2022-08-30T17:47:55.326Z,20.70
2022-08-30T17:50:21.965Z,20.50
2022-08-30T17:52:50.269Z,20.50
2022-08-30T17:55:17.033Z,20.40
2022-08-30T17:57:44.696Z,20.30
2022-08-30T18:00:15.680Z,20.30
2022-08-30T18:02:42.725Z,20.30
2022-08-30T18:05:09.981Z,20.30
2022-08-30T18:07:37.013Z,20.30
2022-08-30T18:10:05.444Z,20.30
2022-08-30T18:12:33.749Z,20.20
2022-08-30T18:15:01.051Z,20.00
2022-08-30T18:17:28.453Z,19.80
2022-08-30T18:19:55.198Z,19.70
2022-08-30T18:22:24.472Z,19.70
2022-08-30T18:24:51.433Z,19.50
2022-08-30T18:27:18.135Z,19.50
2022-08-30T18:29:44.813Z,19.40
2022-08-30T18:32:11.650Z,19.30
2022-08-30T18:34:40.294Z,19.20
2022-08-30T18:37:11.349Z,19.20
2022-08-30T18:39:39.170Z,19.10
2022-08-30T18:42:08.348Z,19.10
2022-08-30T18:44:37.157Z,19.10
2022-08-30T18:47:32.115Z,19.10
2022-08-30T18:49:54.028Z,19.00
2022-08-30T18:52:20.801Z,19.00
2022-08-30T18:54:52.507Z,18.90
2022-08-30T18:57:19.881Z,18.90
2022-08-30T18:59:46.506Z,18.90
2022-08-30T19:02:14.954Z,18.80
2022-08-30T19:04:43.129Z,18.80
2022-08-30T19:07:12.143Z,18.80
2022-08-30T19:09:39.674Z,18.70
2022-08-30T19:12:09.385Z,18.70
2022-08-30T19:14:36.523Z,18.60
2022-08-30T19:17:06.850Z,18.60
2022-08-30T19:19:35.124Z,18.50
2022-08-30T19:22:04.559Z,18.40
2022-08-30T19:24:31.241Z,18.40
2022-08-30T19:26:59.022Z,18.30
2022-08-30T19:29:26.000Z,18.30
2022-08-30T19:31:53.109Z,18.10
2022-08-30T19:34:19.869Z,18.00
2022-08-30T19:36:48.661Z,18.00
2022-08-30T19:39:15.374Z,17.90
2022-08-30T19:41:44.273Z,17.80
2022-08-30T19:44:11.050Z,17.70
2022-08-30T19:46:37.677Z,17.60
2022-08-30T19:49:07.008Z,17.60
2022-08-30T19:51:33.686Z,17.60
2022-08-30T19:54:00.392Z,17.60
2022-08-30T19:56:27.068Z,17.50
2022-08-30T19:58:54.646Z,17.40
2022-08-30T20:04:08.832Z,17.30
2022-08-30T20:06:36.225Z,17.30
2022-08-30T20:09:04.657Z,17.20
2022-08-30T20:11:31.785Z,17.10
2022-08-30T20:13:58.805Z,17.10
2022-08-30T20:16:35.603Z,17.00
2022-08-30T20:19:06.161Z,16.90
2022-08-30T20:21:33.265Z,16.90
2022-08-30T20:24:00.842Z,16.90
2022-08-30T20:26:33.590Z,16.80
2022-08-30T20:29:02.524Z,16.80
2022-08-30T20:31:29.407Z,16.70
2022-08-30T20:33:56.157Z,16.70
2022-08-30T20:36:23.093Z,16.60
2022-08-30T20:38:50.130Z,16.60
2022-08-30T20:41:18.981Z,16.50
2022-08-30T20:43:46.530Z,16.50
2022-08-30T20:46:16.427Z,16.40
2022-08-30T20:48:43.637Z,16.40
2022-08-30T20:51:14.461Z,16.30
2022-08-30T20:53:41.404Z,16.30
2022-08-30T20:56:12.866Z,16.30
2022-08-30T20:58:39.836Z,16.30
2022-08-30T21:01:08.962Z,16.20
2022-08-30T21:03:36.704Z,16.20
2022-08-30T21:06:04.137Z,16.10
2022-08-30T21:08:30.774Z,16.20
2022-08-30T21:10:57.489Z,16.10
2022-08-30T21:13:24.512Z,16.10
2022-08-30T21:15:58.312Z,16.10
2022-08-30T21:18:30.100Z,16.00
2022-08-30T21:20:57.370Z,16.00
2022-08-30T21:23:24.184Z,15.90
2022-08-30T21:25:50.832Z,15.80
2022-08-30T21:28:18.010Z,15.80
2022-08-30T21:30:45.068Z,15.70
2022-08-30T21:33:11.765Z,15.70
2022-08-30T21:35:57.254Z,15.70
2022-08-30T21:38:24.585Z,15.60
2022-08-30T21:40:51.278Z,15.50
2022-08-30T21:43:17.958Z,15.50
2022-08-30T21:45:45.215Z,15.50
2022-08-30T21:48:13.755Z,15.40
2022-08-30T21:50:42.584Z,15.40
2022-08-30T21:53:09.893Z,15.30
2022-08-30T21:55:36.706Z,15.30
2022-08-30T21:58:03.565Z,15.20
2022-08-30T22:00:31.803Z,15.20
2022-08-30T22:02:58.548Z,15.20
2022-08-30T22:05:25.486Z,15.10
2022-08-30T22:07:52.124Z,15.10
2022-08-30T22:10:21.024Z,15.00
2022-08-30T22:12:47.790Z,15.00
2022-08-30T22:15:14.496Z,14.90
2022-08-30T22:17:41.290Z,14.90
2022-08-30T22:20:08.749Z,14.90
2022-08-30T22:22:35.401Z,14.80
2022-08-30T22:25:02.039Z,14.80
2022-08-30T22:27:31.281Z,14.80
2022-08-30T22:29:58.093Z,14.70
2022-08-30T22:32:24.752Z,14.70
2022-08-30T22:34:51.497Z,14.70
2022-08-30T22:37:18.306Z,14.70
2022-08-30T22:39:44.985Z,14.60
2022-08-30T22:42:11.686Z,14.60
2022-08-30T22:44:38.335Z,14.50
2022-08-30T22:47:05.236Z,14.50
2022-08-30T22:49:32.294Z,14.50
2022-08-30T22:51:58.968Z,14.40
2022-08-30T22:54:25.630Z,14.40
2022-08-30T22:56:52.282Z,14.40
2022-08-30T22:59:18.992Z,14.40
2022-08-30T23:01:47.001Z,14.40
2022-08-30T23:04:13.924Z,14.40
2022-08-30T23:06:41.841Z,14.40
2022-08-30T23:09:16.746Z,14.40
2022-08-30T23:11:43.353Z,14.40
2022-08-30T23:14:10.137Z,14.40
2022-08-30T23:16:36.911Z,14.40
2022-08-30T23:19:04.639Z,14.40
2022-08-30T23:21:31.479Z,14.40
2022-08-30T23:24:17.975Z,14.40
2022-08-30T23:27:04.014Z,14.30
2022-08-30T23:29:49.601Z,14.30
2022-08-30T23:32:35.271Z,14.30
2022-08-30T23:35:25.367Z,14.30
2022-08-30T23:38:15.184Z,14.20
2022-08-30T23:41:00.748Z,14.20
2022-08-30T23:43:46.274Z,14.20
2022-08-30T23:46:31.673Z,14.20
2022-08-30T23:49:17.269Z,14.20
2022-08-30T23:52:02.586Z,14.20
2022-08-30T23:54:48.053Z,14.20
2022-08-30T23:57:33.461Z,14.20
